sensor_id;sensor_type;location;lat;lon;timestamp;temperature;humidity
7530;DHT22;3806;52.270;10.544;2022-09-01T00:01:58;15.90;91.40
7530;DHT22;3806;52.270;10.544;2022-09-01T00:04:25;15.90;91.50
7530;DHT22;3806;52.270;10.544;2022-09-01T00:06:52;15.90;91.60
7530;DHT22;3806;52.270;10.544;2022-09-01T00:09:20;15.90;91.70
7530;DHT22;3806;52.270;10.544;2022-09-01T00:11:50;15.80;91.90
7530;DHT22;3806;52.270;10.544;2022-09-01T00:14:18;15.80;92.10
7530;DHT22;3806;52.270;10.544;2022-09-01T00:16:44;15.80;92.20
7530;DHT22;3806;52.270;10.544;2022-09-01T00:19:10;15.80;92.30
7530;DHT22;3806;52.270;10.544;2022-09-01T00:21:39;15.80;92.40
7530;DHT22;3806;52.270;10.544;2022-09-01T00:24:06;15.70;92.50
7530;DHT22;3806;52.270;10.544;2022-09-01T00:26:32;15.70;92.60
7530;DHT22;3806;52.270;10.544;2022-09-01T00:28:58;15.70;92.80
7530;DHT22;3806;52.270;10.544;2022-09-01T00:31:24;15.70;92.90
7530;DHT22;3806;52.270;10.544;2022-09-01T00:33:50;15.60;93.00
7530;DHT22;3806;52.270;10.544;2022-09-01T00:36:18;15.70;93.10
7530;DHT22;3806;52.270;10.544;2022-09-01T00:38:44;15.60;93.20
7530;DHT22;3806;52.270;10.544;2022-09-01T00:41:10;15.60;93.30
7530;DHT22;3806;52.270;10.544;2022-09-01T00:46:08;15.60;93.60
7530;DHT22;3806;52.270;10.544;2022-09-01T00:48:33;15.60;93.70
7530;DHT22;3806;52.270;10.544;2022-09-01T00:51:00;15.60;93.80
7530;DHT22;3806;52.270;10.544;2022-09-01T00:53:26;15.60;93.90
7530;DHT22;3806;52.270;10.544;2022-09-01T00:55:52;15.60;93.90
7530;DHT22;3806;52.270;10.544;2022-09-01T00:58:17;15.60;94.00
7530;DHT22;3806;52.270;10.544;2022-09-01T01:00:44;15.60;94.00
7530;DHT22;3806;52.270;10.544;2022-09-01T01:03:12;15.60;94.10
7530;DHT22;3806;52.270;10.544;2022-09-01T01:05:42;15.60;94.20
7530;DHT22;3806;52.270;10.544;2022-09-01T01:08:11;15.60;94.30
7530;DHT22;3806;52.270;10.544;2022-09-01T01:10:41;15.60;94.30
7530;DHT22;3806;52.270;10.544;2022-09-01T01:13:13;15.60;94.40
7530;DHT22;3806;52.270;10.544;2022-09-01T01:15:39;15.60;94.60
7530;DHT22;3806;52.270;10.544;2022-09-01T01:18:10;15.50;94.60
7530;DHT22;3806;52.270;10.544;2022-09-01T01:20:36;15.50;94.70
7530;DHT22;3806;52.270;10.544;2022-09-01T01:23:44;15.50;94.80
7530;DHT22;3806;52.270;10.544;2022-09-01T01:26:11;15.40;94.90
7530;DHT22;3806;52.270;10.544;2022-09-01T01:28:39;15.40;95.00
7530;DHT22;3806;52.270;10.544;2022-09-01T01:31:08;15.40;95.50
7530;DHT22;3806;52.270;10.544;2022-09-01T01:33:41;15.30;95.20
7530;DHT22;3806;52.270;10.544;2022-09-01T01:36:12;15.30;95.40
7530;DHT22;3806;52.270;10.544;2022-09-01T01:38:39;15.20;95.60
7530;DHT22;3806;52.270;10.544;2022-09-01T01:41:08;15.20;95.70
7530;DHT22;3806;52.270;10.544;2022-09-01T01:43:34;15.20;96.00
7530;DHT22;3806;52.270;10.544;2022-09-01T01:46:00;15.10;96.20
7530;DHT22;3806;52.270;10.544;2022-09-01T01:48:28;15.10;96.30
7530;DHT22;3806;52.270;10.544;2022-09-01T01:50:59;15.20;96.60
7530;DHT22;3806;52.270;10.544;2022-09-01T01:53:25;15.00;96.70
7530;DHT22;3806;52.270;10.544;2022-09-01T01:55:50;15.00;96.80
7530;DHT22;3806;52.270;10.544;2022-09-01T01:58:18;15.00;96.90
7530;DHT22;3806;52.270;10.544;2022-09-01T02:00:46;15.00;97.00
7530;DHT22;3806;52.270;10.544;2022-09-01T02:03:13;15.00;97.10
7530;DHT22;3806;52.270;10.544;2022-09-01T02:05:44;15.00;97.20
7530;DHT22;3806;52.270;10.544;2022-09-01T02:08:10;14.90;97.20
7530;DHT22;3806;52.270;10.544;2022-09-01T02:10:42;14.90;97.20
7530;DHT22;3806;52.270;10.544;2022-09-01T02:13:10;14.90;97.40
7530;DHT22;3806;52.270;10.544;2022-09-01T02:15:42;14.90;97.50
7530;DHT22;3806;52.270;10.544;2022-09-01T02:18:19;14.90;97.80
7530;DHT22;3806;52.270;10.544;2022-09-01T02:20:47;14.90;98.00
7530;DHT22;3806;52.270;10.544;2022-09-01T02:23:16;14.90;98.20
7530;DHT22;3806;52.270;10.544;2022-09-01T02:25:45;14.80;98.30
7530;DHT22;3806;52.270;10.544;2022-09-01T02:28:13;14.80;98.30
7530;DHT22;3806;52.270;10.544;2022-09-01T02:30:44;14.80;98.40
7530;DHT22;3806;52.270;10.544;2022-09-01T02:33:11;14.80;98.50
7530;DHT22;3806;52.270;10.544;2022-09-01T02:35:48;14.80;98.60
7530;DHT22;3806;52.270;10.544;2022-09-01T02:38:14;14.80;98.60
7530;DHT22;3806;52.270;10.544;2022-09-01T02:40:46;14.70;98.70
7530;DHT22;3806;52.270;10.544;2022-09-01T02:43:13;14.70;98.60
7530;DHT22;3806;52.270;10.544;2022-09-01T02:45:44;14.80;98.60
7530;DHT22;3806;52.270;10.544;2022-09-01T02:48:11;14.70;98.60
7530;DHT22;3806;52.270;10.544;2022-09-01T02:50:39;14.70;98.60
7530;DHT22;3806;52.270;10.544;2022-09-01T02:53:06;14.70;98.60
7530;DHT22;3806;52.270;10.544;2022-09-01T02:55:35;14.70;98.70
7530;DHT22;3806;52.270;10.544;2022-09-01T02:58:02;14.60;98.70
7530;DHT22;3806;52.270;10.544;2022-09-01T03:00:27;14.60;98.80
7530;DHT22;3806;52.270;10.544;2022-09-01T03:02:57;14.60;98.80
7530;DHT22;3806;52.270;10.544;2022-09-01T03:05:27;14.60;98.90
7530;DHT22;3806;52.270;10.544;2022-09-01T03:07:57;14.50;98.90
7530;DHT22;3806;52.270;10.544;2022-09-01T03:10:26;14.50;99.00
7530;DHT22;3806;52.270;10.544;2022-09-01T03:12:57;14.50;99.00
7530;DHT22;3806;52.270;10.544;2022-09-01T03:15:24;14.50;99.00
7530;DHT22;3806;52.270;10.544;2022-09-01T03:17:49;14.50;99.10
7530;DHT22;3806;52.270;10.544;2022-09-01T03:20:16;14.40;99.10
7530;DHT22;3806;52.270;10.544;2022-09-01T03:22:43;14.40;99.20
7530;DHT22;3806;52.270;10.544;2022-09-01T03:25:09;14.40;99.40
7530;DHT22;3806;52.270;10.544;2022-09-01T03:27:35;14.40;99.50
7530;DHT22;3806;52.270;10.544;2022-09-01T03:30:00;14.40;99.50
7530;DHT22;3806;52.270;10.544;2022-09-01T03:32:26;14.40;99.60
7530;DHT22;3806;52.270;10.544;2022-09-01T03:34:53;14.30;99.60
7530;DHT22;3806;52.270;10.544;2022-09-01T03:37:19;14.30;99.90
7530;DHT22;3806;52.270;10.544;2022-09-01T03:39:45;14.30;99.70
7530;DHT22;3806;52.270;10.544;2022-09-01T03:42:11;14.30;99.80
7530;DHT22;3806;52.270;10.544;2022-09-01T03:44:43;14.20;99.90
7530;DHT22;3806;52.270;10.544;2022-09-01T03:47:09;14.20;99.90
7530;DHT22;3806;52.270;10.544;2022-09-01T03:49:35;14.20;99.90
7530;DHT22;3806;52.270;10.544;2022-09-01T03:52:04;14.10;99.90
7530;DHT22;3806;52.270;10.544;2022-09-01T03:54:33;14.10;99.90
7530;DHT22;3806;52.270;10.544;2022-09-01T03:56:59;14.10;99.90
7530;DHT22;3806;52.270;10.544;2022-09-01T03:59:25;14.10;99.90
7530;DHT22;3806;52.270;10.544;2022-09-01T04:01:53;14.10;99.90
7530;DHT22;3806;52.270;10.544;2022-09-01T04:04:18;14.10;99.90
7530;DHT22;3806;52.270;10.544;2022-09-01T04:06:45;14.20;99.90
7530;DHT22;3806;52.270;10.544;2022-09-01T04:09:11;14.10;99.90
7530;DHT22;3806;52.270;10.544;2022-09-01T04:11:37;14.00;99.90
7530;DHT22;3806;52.270;10.544;2022-09-01T04:14:04;14.00;99.90
7530;DHT22;3806;52.270;10.544;2022-09-01T04:16:33;14.00;99.90
7530;DHT22;3806;52.270;10.544;2022-09-01T04:19:20;14.00;99.90
7530;DHT22;3806;52.270;10.544;2022-09-01T04:21:51;14.10;99.90
7530;DHT22;3806;52.270;10.544;2022-09-01T04:24:22;14.00;99.90
7530;DHT22;3806;52.270;10.544;2022-09-01T04:26:49;14.00;99.90
7530;DHT22;3806;52.270;10.544;2022-09-01T04:29:17;14.00;99.90
7530;DHT22;3806;52.270;10.544;2022-09-01T04:31:56;14.00;99.90
7530;DHT22;3806;52.270;10.544;2022-09-01T04:34:26;14.00;99.90
7530;DHT22;3806;52.270;10.544;2022-09-01T04:36:52;14.00;99.90
7530;DHT22;3806;52.270;10.544;2022-09-01T04:39:19;14.00;99.90
7530;DHT22;3806;52.270;10.544;2022-09-01T04:41:45;14.00;99.90
7530;DHT22;3806;52.270;10.544;2022-09-01T04:44:13;14.00;99.90
7530;DHT22;3806;52.270;10.544;2022-09-01T04:46:41;14.00;99.90
7530;DHT22;3806;52.270;10.544;2022-09-01T04:49:10;14.10;99.90
7530;DHT22;3806;52.270;10.544;2022-09-01T04:51:41;14.10;99.90
7530;DHT22;3806;52.270;10.544;2022-09-01T04:54:07;14.10;99.90
7530;DHT22;3806;52.270;10.544;2022-09-01T04:56:40;14.10;99.90
7530;DHT22;3806;52.270;10.544;2022-09-01T04:59:07;14.10;99.90
7530;DHT22;3806;52.270;10.544;2022-09-01T05:01:35;14.10;99.90
7530;DHT22;3806;52.270;10.544;2022-09-01T05:04:20;14.20;99.90
7530;DHT22;3806;52.270;10.544;2022-09-01T05:06:49;14.20;99.90
7530;DHT22;3806;52.270;10.544;2022-09-01T05:09:17;14.20;99.90
7530;DHT22;3806;52.270;10.544;2022-09-01T05:11:43;14.20;99.90
7530;DHT22;3806;52.270;10.544;2022-09-01T05:14:11;14.30;99.90
7530;DHT22;3806;52.270;10.544;2022-09-01T05:16:37;14.40;99.90
7530;DHT22;3806;52.270;10.544;2022-09-01T05:19:06;14.40;99.90
7530;DHT22;3806;52.270;10.544;2022-09-01T05:21:39;14.40;99.90
7530;DHT22;3806;52.270;10.544;2022-09-01T05:24:06;14.50;99.90
7530;DHT22;3806;52.270;10.544;2022-09-01T05:26:33;14.60;99.90
7530;DHT22;3806;52.270;10.544;2022-09-01T05:29:01;14.70;99.90
7530;DHT22;3806;52.270;10.544;2022-09-01T05:31:29;14.70;99.90
7530;DHT22;3806;52.270;10.544;2022-09-01T05:34:02;14.80;99.90
7530;DHT22;3806;52.270;10.544;2022-09-01T05:36:28;14.70;99.90
7530;DHT22;3806;52.270;10.544;2022-09-01T05:38:57;14.80;99.90
7530;DHT22;3806;52.270;10.544;2022-09-01T05:41:24;14.80;99.90
7530;DHT22;3806;52.270;10.544;2022-09-01T05:43:50;14.90;99.90
7530;DHT22;3806;52.270;10.544;2022-09-01T05:46:22;15.00;99.90
7530;DHT22;3806;52.270;10.544;2022-09-01T05:48:49;15.10;99.90
7530;DHT22;3806;52.270;10.544;2022-09-01T05:51:17;15.30;99.80
7530;DHT22;3806;52.270;10.544;2022-09-01T05:53:53;15.40;99.50
7530;DHT22;3806;52.270;10.544;2022-09-01T05:56:25;15.70;99.40
7530;DHT22;3806;52.270;10.544;2022-09-01T05:58:51;16.40;99.70
7530;DHT22;3806;52.270;10.544;2022-09-01T06:01:19;17.60;98.40
7530;DHT22;3806;52.270;10.544;2022-09-01T06:03:54;18.90;95.10
7530;DHT22;3806;52.270;10.544;2022-09-01T06:06:26;19.60;92.20
7530;DHT22;3806;52.270;10.544;2022-09-01T06:08:53;20.30;91.00
7530;DHT22;3806;52.270;10.544;2022-09-01T06:11:25;21.70;87.30
7530;DHT22;3806;52.270;10.544;2022-09-01T06:13:51;23.40;79.10
7530;DHT22;3806;52.270;10.544;2022-09-01T06:16:22;24.70;69.10
7530;DHT22;3806;52.270;10.544;2022-09-01T06:18:49;24.60;65.10
7530;DHT22;3806;52.270;10.544;2022-09-01T06:21:17;24.00;63.90
7530;DHT22;3806;52.270;10.544;2022-09-01T06:23:43;23.30;64.60
7530;DHT22;3806;52.270;10.544;2022-09-01T06:26:22;22.50;66.20
7530;DHT22;3806;52.270;10.544;2022-09-01T06:28:48;21.60;69.00
7530;DHT22;3806;52.270;10.544;2022-09-01T06:31:20;20.80;71.60
7530;DHT22;3806;52.270;10.544;2022-09-01T06:33:49;20.10;74.60
7530;DHT22;3806;52.270;10.544;2022-09-01T06:36:16;19.60;77.40
7530;DHT22;3806;52.270;10.544;2022-09-01T06:38:46;19.30;80.20
7530;DHT22;3806;52.270;10.544;2022-09-01T06:41:13;19.00;82.80
7530;DHT22;3806;52.270;10.544;2022-09-01T06:43:39;18.70;85.00
7530;DHT22;3806;52.270;10.544;2022-09-01T06:46:07;18.50;86.70
7530;DHT22;3806;52.270;10.544;2022-09-01T06:48:35;18.40;88.20
7530;DHT22;3806;52.270;10.544;2022-09-01T06:51:02;18.30;89.20
7530;DHT22;3806;52.270;10.544;2022-09-01T06:53:31;18.20;90.10
7530;DHT22;3806;52.270;10.544;2022-09-01T06:55:59;18.20;90.40
7530;DHT22;3806;52.270;10.544;2022-09-01T06:58:24;18.30;90.60
7530;DHT22;3806;52.270;10.544;2022-09-01T07:00:50;18.30;90.80
7530;DHT22;3806;52.270;10.544;2022-09-01T07:03:16;18.20;90.80
7530;DHT22;3806;52.270;10.544;2022-09-01T07:05:46;18.30;91.00
7530;DHT22;3806;52.270;10.544;2022-09-01T07:08:15;18.30;91.10
7530;DHT22;3806;52.270;10.544;2022-09-01T07:10:48;18.40;91.30
7530;DHT22;3806;52.270;10.544;2022-09-01T07:13:17;18.50;91.20
7530;DHT22;3806;52.270;10.544;2022-09-01T07:15:51;19.00;91.00
7530;DHT22;3806;52.270;10.544;2022-09-01T07:18:20;20.20;90.40
7530;DHT22;3806;52.270;10.544;2022-09-01T07:20:47;22.60;81.50
7530;DHT22;3806;52.270;10.544;2022-09-01T07:23:14;25.50;69.40
7530;DHT22;3806;52.270;10.544;2022-09-01T07:25:43;28.40;57.20
7530;DHT22;3806;52.270;10.544;2022-09-01T07:28:10;30.90;46.30
7530;DHT22;3806;52.270;10.544;2022-09-01T07:30:42;32.80;40.80
7530;DHT22;3806;52.270;10.544;2022-09-01T07:33:10;34.50;34.80
7530;DHT22;3806;52.270;10.544;2022-09-01T07:35:39;35.90;30.80
7530;DHT22;3806;52.270;10.544;2022-09-01T07:38:05;36.90;29.60
7530;DHT22;3806;52.270;10.544;2022-09-01T07:40:32;37.80;27.70
7530;DHT22;3806;52.270;10.544;2022-09-01T07:43:03;38.30;26.70
7530;DHT22;3806;52.270;10.544;2022-09-01T07:45:34;38.40;26.60
7530;DHT22;3806;52.270;10.544;2022-09-01T07:48:03;38.40;26.40
7530;DHT22;3806;52.270;10.544;2022-09-01T07:50:39;37.80;25.60
7530;DHT22;3806;52.270;10.544;2022-09-01T07:53:06;37.10;26.20
7530;DHT22;3806;52.270;10.544;2022-09-01T07:55:33;36.10;26.00
7530;DHT22;3806;52.270;10.544;2022-09-01T07:57:59;35.30;26.60
7530;DHT22;3806;52.270;10.544;2022-09-01T08:00:25;34.80;26.90
7530;DHT22;3806;52.270;10.544;2022-09-01T08:02:51;34.40;27.30
7530;DHT22;3806;52.270;10.544;2022-09-01T08:05:17;34.40;26.90
7530;DHT22;3806;52.270;10.544;2022-09-01T08:07:47;34.60;27.40
7530;DHT22;3806;52.270;10.544;2022-09-01T08:10:14;35.00;27.30
7530;DHT22;3806;52.270;10.544;2022-09-01T08:12:40;35.70;27.00
7530;DHT22;3806;52.270;10.544;2022-09-01T08:15:08;36.50;26.80
7530;DHT22;3806;52.270;10.544;2022-09-01T08:17:36;37.50;25.10
7530;DHT22;3806;52.270;10.544;2022-09-01T08:20:02;38.70;24.30
7530;DHT22;3806;52.270;10.544;2022-09-01T08:22:28;39.90;23.30
7530;DHT22;3806;52.270;10.544;2022-09-01T08:24:54;41.00;23.50
7530;DHT22;3806;52.270;10.544;2022-09-01T08:27:19;42.10;22.30
7530;DHT22;3806;52.270;10.544;2022-09-01T08:29:45;43.10;21.50
7530;DHT22;3806;52.270;10.544;2022-09-01T08:32:11;44.10;19.60
7530;DHT22;3806;52.270;10.544;2022-09-01T08:34:37;45.00;20.10
7530;DHT22;3806;52.270;10.544;2022-09-01T08:37:04;45.70;19.80
7530;DHT22;3806;52.270;10.544;2022-09-01T08:39:29;46.40;19.20
7530;DHT22;3806;52.270;10.544;2022-09-01T08:42:02;47.10;18.00
7530;DHT22;3806;52.270;10.544;2022-09-01T08:47:08;48.70;17.00
7530;DHT22;3806;52.270;10.544;2022-09-01T08:49:35;49.20;16.50
7530;DHT22;3806;52.270;10.544;2022-09-01T08:57:46;49.50;15.10
7530;DHT22;3806;52.270;10.544;2022-09-01T09:00:17;49.10;15.70
7530;DHT22;3806;52.270;10.544;2022-09-01T09:03:00;48.60;15.30
7530;DHT22;3806;52.270;10.544;2022-09-01T09:05:32;48.30;15.60
7530;DHT22;3806;52.270;10.544;2022-09-01T09:13:30;47.10;15.70
7530;DHT22;3806;52.270;10.544;2022-09-01T09:16:17;46.80;16.10
7530;DHT22;3806;52.270;10.544;2022-09-01T09:19:02;46.70;16.20
7530;DHT22;3806;52.270;10.544;2022-09-01T09:21:37;46.60;16.00
7530;DHT22;3806;52.270;10.544;2022-09-01T09:26:51;46.00;16.70
7530;DHT22;3806;52.270;10.544;2022-09-01T09:29:17;45.60;16.30
7530;DHT22;3806;52.270;10.544;2022-09-01T09:31:44;45.00;16.60
7530;DHT22;3806;52.270;10.544;2022-09-01T09:34:33;44.40;16.70
7530;DHT22;3806;52.270;10.544;2022-09-01T09:37:28;43.60;16.80
7530;DHT22;3806;52.270;10.544;2022-09-01T09:40:11;42.70;16.10
7530;DHT22;3806;52.270;10.544;2022-09-01T09:42:40;41.40;16.80
7530;DHT22;3806;52.270;10.544;2022-09-01T09:45:22;40.30;17.90
7530;DHT22;3806;52.270;10.544;2022-09-01T09:47:49;38.80;18.60
7530;DHT22;3806;52.270;10.544;2022-09-01T09:50:40;37.70;19.40
7530;DHT22;3806;52.270;10.544;2022-09-01T09:53:15;36.60;20.10
7530;DHT22;3806;52.270;10.544;2022-09-01T09:56:00;36.00;20.30
7530;DHT22;3806;52.270;10.544;2022-09-01T09:58:38;35.50;20.40
7530;DHT22;3806;52.270;10.544;2022-09-01T10:03:47;34.80;21.70
7530;DHT22;3806;52.270;10.544;2022-09-01T10:06:36;34.50;21.90
7530;DHT22;3806;52.270;10.544;2022-09-01T10:12:02;34.10;22.60
7530;DHT22;3806;52.270;10.544;2022-09-01T10:14:44;33.90;22.10
7530;DHT22;3806;52.270;10.544;2022-09-01T10:17:14;33.90;22.20
7530;DHT22;3806;52.270;10.544;2022-09-01T10:19:49;33.90;22.30
7530;DHT22;3806;52.270;10.544;2022-09-01T10:22:15;33.90;22.30
7530;DHT22;3806;52.270;10.544;2022-09-01T10:24:41;33.60;22.50
7530;DHT22;3806;52.270;10.544;2022-09-01T10:27:15;33.10;22.40
7530;DHT22;3806;52.270;10.544;2022-09-01T10:29:50;32.60;23.30
7530;DHT22;3806;52.270;10.544;2022-09-01T10:32:21;32.00;23.60
7530;DHT22;3806;52.270;10.544;2022-09-01T10:34:49;31.70;23.50
7530;DHT22;3806;52.270;10.544;2022-09-01T10:37:15;31.30;24.00
7530;DHT22;3806;52.270;10.544;2022-09-01T10:40:11;31.10;24.70
7530;DHT22;3806;52.270;10.544;2022-09-01T10:42:38;31.20;25.20
7530;DHT22;3806;52.270;10.544;2022-09-01T10:45:37;31.30;25.50
7530;DHT22;3806;52.270;10.544;2022-09-01T10:50:47;31.20;24.70
7530;DHT22;3806;52.270;10.544;2022-09-01T11:04:22;30.30;25.90
7530;DHT22;3806;52.270;10.544;2022-09-01T11:07:33;30.00;25.80
7530;DHT22;3806;52.270;10.544;2022-09-01T11:15:38;29.20;27.00
7530;DHT22;3806;52.270;10.544;2022-09-01T11:18:15;29.10;26.70
7530;DHT22;3806;52.270;10.544;2022-09-01T11:20:42;29.00;26.80
7530;DHT22;3806;52.270;10.544;2022-09-01T11:23:28;28.90;27.10
7530;DHT22;3806;52.270;10.544;2022-09-01T11:26:02;28.80;26.80
7530;DHT22;3806;52.270;10.544;2022-09-01T11:28:43;28.70;27.30
7530;DHT22;3806;52.270;10.544;2022-09-01T11:31:31;28.80;27.10
7530;DHT22;3806;52.270;10.544;2022-09-01T11:34:07;28.90;27.40
7530;DHT22;3806;52.270;10.544;2022-09-01T11:44:51;28.80;26.70
7530;DHT22;3806;52.270;10.544;2022-09-01T11:47:38;28.70;26.70
7530;DHT22;3806;52.270;10.544;2022-09-01T11:52:37;28.50;26.70
7530;DHT22;3806;52.270;10.544;2022-09-01T11:55:05;28.30;26.50
7530;DHT22;3806;52.270;10.544;2022-09-01T11:57:33;28.10;27.80
7530;DHT22;3806;52.270;10.544;2022-09-01T12:00:05;28.00;26.90
7530;DHT22;3806;52.270;10.544;2022-09-01T12:02:33;27.80;27.00
7530;DHT22;3806;52.270;10.544;2022-09-01T12:05:01;27.70;27.00
7530;DHT22;3806;52.270;10.544;2022-09-01T12:07:36;27.60;27.00
7530;DHT22;3806;52.270;10.544;2022-09-01T12:10:12;27.50;27.00
7530;DHT22;3806;52.270;10.544;2022-09-01T12:12:38;27.30;27.40
7530;DHT22;3806;52.270;10.544;2022-09-01T12:15:18;27.20;28.10
7530;DHT22;3806;52.270;10.544;2022-09-01T12:17:44;27.10;28.30
7530;DHT22;3806;52.270;10.544;2022-09-01T12:20:27;27.10;28.10
7530;DHT22;3806;52.270;10.544;2022-09-01T12:22:54;27.10;28.20
7530;DHT22;3806;52.270;10.544;2022-09-01T12:25:30;27.10;27.40
7530;DHT22;3806;52.270;10.544;2022-09-01T12:27:59;27.00;27.20
7530;DHT22;3806;52.270;10.544;2022-09-01T12:30:26;26.80;27.50
7530;DHT22;3806;52.270;10.544;2022-09-01T12:32:52;26.70;27.60
7530;DHT22;3806;52.270;10.544;2022-09-01T12:35:24;26.70;27.90
7530;DHT22;3806;52.270;10.544;2022-09-01T12:37:50;26.60;27.80
7530;DHT22;3806;52.270;10.544;2022-09-01T12:40:33;26.50;27.80
7530;DHT22;3806;52.270;10.544;2022-09-01T12:43:00;26.50;27.70
7530;DHT22;3806;52.270;10.544;2022-09-01T12:48:06;26.60;27.60
7530;DHT22;3806;52.270;10.544;2022-09-01T12:50:34;26.60;27.90
7530;DHT22;3806;52.270;10.544;2022-09-01T12:53:00;26.50;28.10
7530;DHT22;3806;52.270;10.544;2022-09-01T12:55:29;26.50;28.20
7530;DHT22;3806;52.270;10.544;2022-09-01T12:58:07;26.50;27.20
7530;DHT22;3806;52.270;10.544;2022-09-01T13:00:35;26.60;27.00
7530;DHT22;3806;52.270;10.544;2022-09-01T13:05:38;26.50;28.00
7530;DHT22;3806;52.270;10.544;2022-09-01T13:08:17;26.40;28.20
7530;DHT22;3806;52.270;10.544;2022-09-01T13:10:51;26.50;28.50
7530;DHT22;3806;52.270;10.544;2022-09-01T13:13:18;26.50;27.40
7530;DHT22;3806;52.270;10.544;2022-09-01T13:15:47;26.40;27.40
7530;DHT22;3806;52.270;10.544;2022-09-01T13:18:14;26.30;27.80
7530;DHT22;3806;52.270;10.544;2022-09-01T13:20:39;26.20;27.60
7530;DHT22;3806;52.270;10.544;2022-09-01T13:23:07;26.10;27.70
7530;DHT22;3806;52.270;10.544;2022-09-01T13:25:33;25.90;27.50
7530;DHT22;3806;52.270;10.544;2022-09-01T13:28:00;25.60;27.60
7530;DHT22;3806;52.270;10.544;2022-09-01T13:30:28;25.50;27.90
7530;DHT22;3806;52.270;10.544;2022-09-01T13:32:55;25.40;27.90
7530;DHT22;3806;52.270;10.544;2022-09-01T13:35:22;25.30;28.00
7530;DHT22;3806;52.270;10.544;2022-09-01T13:37:49;25.30;28.30
7530;DHT22;3806;52.270;10.544;2022-09-01T13:40:19;25.40;27.70
7530;DHT22;3806;52.270;10.544;2022-09-01T13:42:47;25.40;27.90
7530;DHT22;3806;52.270;10.544;2022-09-01T13:45:13;25.40;27.70
7530;DHT22;3806;52.270;10.544;2022-09-01T13:47:42;25.30;27.60
7530;DHT22;3806;52.270;10.544;2022-09-01T13:50:09;25.30;27.10
7530;DHT22;3806;52.270;10.544;2022-09-01T13:52:37;25.20;26.60
7530;DHT22;3806;52.270;10.544;2022-09-01T13:55:04;25.10;27.00
7530;DHT22;3806;52.270;10.544;2022-09-01T13:57:30;25.00;27.40
7530;DHT22;3806;52.270;10.544;2022-09-01T13:59:55;24.90;27.70
7530;DHT22;3806;52.270;10.544;2022-09-01T14:02:22;24.90;27.70
7530;DHT22;3806;52.270;10.544;2022-09-01T14:04:48;24.90;27.70
7530;DHT22;3806;52.270;10.544;2022-09-01T14:07:14;24.90;28.30
7530;DHT22;3806;52.270;10.544;2022-09-01T14:09:40;24.90;27.90
7530;DHT22;3806;52.270;10.544;2022-09-01T14:12:06;24.90;27.90
7530;DHT22;3806;52.270;10.544;2022-09-01T14:14:32;24.80;27.90
7530;DHT22;3806;52.270;10.544;2022-09-01T14:16:58;24.80;28.10
7530;DHT22;3806;52.270;10.544;2022-09-01T14:19:24;24.80;28.40
7530;DHT22;3806;52.270;10.544;2022-09-01T14:21:50;24.80;28.30
7530;DHT22;3806;52.270;10.544;2022-09-01T14:24:16;24.80;28.40
7530;DHT22;3806;52.270;10.544;2022-09-01T14:26:44;24.80;28.50
7530;DHT22;3806;52.270;10.544;2022-09-01T14:29:10;24.80;28.50
7530;DHT22;3806;52.270;10.544;2022-09-01T14:31:36;24.70;28.60
7530;DHT22;3806;52.270;10.544;2022-09-01T14:34:02;24.70;28.30
7530;DHT22;3806;52.270;10.544;2022-09-01T14:36:29;24.70;28.30
7530;DHT22;3806;52.270;10.544;2022-09-01T14:38:55;24.60;28.40
7530;DHT22;3806;52.270;10.544;2022-09-01T14:41:23;24.70;28.40
7530;DHT22;3806;52.270;10.544;2022-09-01T14:43:52;24.60;28.40
7530;DHT22;3806;52.270;10.544;2022-09-01T14:46:19;24.50;28.30
7530;DHT22;3806;52.270;10.544;2022-09-01T14:48:46;24.40;28.50
7530;DHT22;3806;52.270;10.544;2022-09-01T14:51:33;24.30;28.80
7530;DHT22;3806;52.270;10.544;2022-09-01T14:53:58;24.30;28.50
7530;DHT22;3806;52.270;10.544;2022-09-01T14:56:25;24.30;28.60
7530;DHT22;3806;52.270;10.544;2022-09-01T14:58:52;24.30;28.70
7530;DHT22;3806;52.270;10.544;2022-09-01T15:01:23;24.30;28.40
7530;DHT22;3806;52.270;10.544;2022-09-01T15:03:50;24.30;28.50
7530;DHT22;3806;52.270;10.544;2022-09-01T15:06:17;24.40;28.20
7530;DHT22;3806;52.270;10.544;2022-09-01T15:08:44;24.40;28.20
7530;DHT22;3806;52.270;10.544;2022-09-01T15:11:12;24.40;28.50
7530;DHT22;3806;52.270;10.544;2022-09-01T15:13:39;24.40;28.80
7530;DHT22;3806;52.270;10.544;2022-09-01T15:16:11;24.40;28.90
7530;DHT22;3806;52.270;10.544;2022-09-01T15:18:37;24.50;28.80
7530;DHT22;3806;52.270;10.544;2022-09-01T15:21:04;24.50;28.60
7530;DHT22;3806;52.270;10.544;2022-09-01T15:23:30;24.50;28.50
7530;DHT22;3806;52.270;10.544;2022-09-01T15:25:56;24.40;28.50
7530;DHT22;3806;52.270;10.544;2022-09-01T15:28:25;24.30;29.30
7530;DHT22;3806;52.270;10.544;2022-09-01T15:30:52;24.20;29.10
7530;DHT22;3806;52.270;10.544;2022-09-01T15:33:19;24.00;29.60
7530;DHT22;3806;52.270;10.544;2022-09-01T15:35:45;23.90;30.00
7530;DHT22;3806;52.270;10.544;2022-09-01T15:38:13;23.80;30.40
7530;DHT22;3806;52.270;10.544;2022-09-01T15:40:41;23.70;30.90
7530;DHT22;3806;52.270;10.544;2022-09-01T15:43:07;23.60;31.30
7530;DHT22;3806;52.270;10.544;2022-09-01T15:45:33;23.50;31.60
7530;DHT22;3806;52.270;10.544;2022-09-01T15:48:00;23.40;31.90
7530;DHT22;3806;52.270;10.544;2022-09-01T15:50:26;23.30;32.20
7530;DHT22;3806;52.270;10.544;2022-09-01T15:52:58;23.30;32.50
7530;DHT22;3806;52.270;10.544;2022-09-01T15:55:45;23.20;32.70
7530;DHT22;3806;52.270;10.544;2022-09-01T15:58:13;23.10;32.80
7530;DHT22;3806;52.270;10.544;2022-09-01T16:00:40;22.90;33.10
7530;DHT22;3806;52.270;10.544;2022-09-01T16:03:06;22.90;33.30
7530;DHT22;3806;52.270;10.544;2022-09-01T16:05:33;22.80;33.20
7530;DHT22;3806;52.270;10.544;2022-09-01T16:07:59;22.80;33.50
7530;DHT22;3806;52.270;10.544;2022-09-01T16:10:26;22.80;33.60
7530;DHT22;3806;52.270;10.544;2022-09-01T16:12:53;22.80;33.60
7530;DHT22;3806;52.270;10.544;2022-09-01T16:15:21;22.80;33.70
7530;DHT22;3806;52.270;10.544;2022-09-01T16:20:33;22.80;34.10
7530;DHT22;3806;52.270;10.544;2022-09-01T16:25:32;22.80;33.70
7530;DHT22;3806;52.270;10.544;2022-09-01T16:28:10;22.70;33.60
7530;DHT22;3806;52.270;10.544;2022-09-01T16:30:37;22.70;33.70
7530;DHT22;3806;52.270;10.544;2022-09-01T16:33:04;22.70;33.80
7530;DHT22;3806;52.270;10.544;2022-09-01T16:35:53;22.70;33.90
7530;DHT22;3806;52.270;10.544;2022-09-01T16:41:40;22.60;34.10
7530;DHT22;3806;52.270;10.544;2022-09-01T16:52:26;22.40;35.00
7530;DHT22;3806;52.270;10.544;2022-09-01T16:58:13;22.30;35.20
7530;DHT22;3806;52.270;10.544;2022-09-01T17:03:33;22.20;35.50
7530;DHT22;3806;52.270;10.544;2022-09-01T17:08:43;22.10;36.10
7530;DHT22;3806;52.270;10.544;2022-09-01T17:11:40;22.00;36.50
7530;DHT22;3806;52.270;10.544;2022-09-01T17:14:13;22.00;36.80
7530;DHT22;3806;52.270;10.544;2022-09-01T17:16:51;21.90;36.90
7530;DHT22;3806;52.270;10.544;2022-09-01T17:19:20;21.80;36.50
7530;DHT22;3806;52.270;10.544;2022-09-01T17:27:55;21.60;37.40
7530;DHT22;3806;52.270;10.544;2022-09-01T17:30:23;21.50;37.00
7530;DHT22;3806;52.270;10.544;2022-09-01T17:33:02;21.50;37.10